Cartagena, Spain
Current Conditions -  °F | °C
As of 9:00 PM on Saturday 20 Dec 2014 (Local Time) from LELC Reporting Station
Broken Clouds Broken Clouds  
Wind Chill: 59°   Ceiling: 2600
Heat Index: 59°   Visibility: 6mi
Dew Point: 54°   Wind: 2mph
Humidity: 82%   Direction: NA
Pressure: 30.45"   Gusts: NA
Location:  37.61°N, 0.99°W
Report Text: LELC 202000Z VRB02KT 9999 BKN026 15/12 Q1031 NOSIG
Loading
Personal Weather Stations






























Interactive Weather Map New forecast layout! Learn more

10-Day Weather Forecast

Advertisements
Track Severe Weather on mobile